sensor_id;sensor_type;location;lat;lon;timestamp;pressure;altitude;pressure_sealevel;temperature;humidity
804;BME280;25687;49.976;8.240;2023-06-19T00:00:09;99495.00;;;22.99;97.34
804;BME280;25687;49.976;8.240;2023-06-19T00:02:42;99510.28;;;23.11;96.69
804;BME280;25687;49.976;8.240;2023-06-19T00:05:08;99510.50;;;23.24;96.11
804;BME280;25687;49.976;8.240;2023-06-19T00:07:35;99513.66;;;23.19;97.21
804;BME280;25687;49.976;8.240;2023-06-19T00:10:01;99519.22;;;23.25;97.81
804;BME280;25687;49.976;8.240;2023-06-19T00:12:26;99515.41;;;23.27;99.74
804;BME280;25687;49.976;8.240;2023-06-19T00:14:51;99520.38;;;23.22;100.00
804;BME280;25687;49.976;8.240;2023-06-19T00:17:16;99530.25;;;23.20;100.00
804;BME280;25687;49.976;8.240;2023-06-19T00:19:43;99538.16;;;23.12;98.08
804;BME280;25687;49.976;8.240;2023-06-19T00:22:08;99523.28;;;22.89;91.22
804;BME280;25687;49.976;8.240;2023-06-19T00:24:33;99508.47;;;22.81;91.13
804;BME280;25687;49.976;8.240;2023-06-19T00:26:58;99501.81;;;22.70;91.16
804;BME280;25687;49.976;8.240;2023-06-19T00:29:28;99507.34;;;22.76;91.31
804;BME280;25687;49.976;8.240;2023-06-19T00:31:54;99501.81;;;22.70;91.55
804;BME280;25687;49.976;8.240;2023-06-19T00:34:19;99503.72;;;22.62;92.00
804;BME280;25687;49.976;8.240;2023-06-19T00:36:44;99503.44;;;22.56;92.07
804;BME280;25687;49.976;8.240;2023-06-19T00:39:10;99506.34;;;22.62;92.73
804;BME280;25687;49.976;8.240;2023-06-19T00:41:35;99506.16;;;22.63;93.18
804;BME280;25687;49.976;8.240;2023-06-19T00:44:01;99504.38;;;22.40;92.43
804;BME280;25687;49.976;8.240;2023-06-19T00:46:26;99499.97;;;22.33;92.56
804;BME280;25687;49.976;8.240;2023-06-19T00:48:51;99506.53;;;22.29;94.31
804;BME280;25687;49.976;8.240;2023-06-19T00:51:17;99497.81;;;22.36;94.03
804;BME280;25687;49.976;8.240;2023-06-19T00:53:42;99494.56;;;22.34;94.37
804;BME280;25687;49.976;8.240;2023-06-19T00:56:07;99484.50;;;22.23;94.12
804;BME280;25687;49.976;8.240;2023-06-19T00:58:33;99487.06;;;22.08;94.95
804;BME280;25687;49.976;8.240;2023-06-19T01:00:58;99484.66;;;22.21;95.31
804;BME280;25687;49.976;8.240;2023-06-19T01:03:24;99490.03;;;22.28;95.07
804;BME280;25687;49.976;8.240;2023-06-19T01:05:53;99488.66;;;22.32;93.58
804;BME280;25687;49.976;8.240;2023-06-19T01:08:37;99495.25;;;22.28;93.98
804;BME280;25687;49.976;8.240;2023-06-19T01:11:07;99493.81;;;22.25;93.79
804;BME280;25687;49.976;8.240;2023-06-19T01:13:50;99500.53;;;22.20;96.47
804;BME280;25687;49.976;8.240;2023-06-19T01:16:16;99499.91;;;22.18;97.90
804;BME280;25687;49.976;8.240;2023-06-19T01:18:42;99489.66;;;21.76;100.00
804;BME280;25687;49.976;8.240;2023-06-19T01:21:18;99495.63;;;21.54;100.00
804;BME280;25687;49.976;8.240;2023-06-19T01:23:44;99508.03;;;21.68;100.00
804;BME280;25687;49.976;8.240;2023-06-19T01:26:11;99516.03;;;21.67;100.00
804;BME280;25687;49.976;8.240;2023-06-19T01:28:39;99503.31;;;21.55;100.00
804;BME280;25687;49.976;8.240;2023-06-19T01:31:11;99503.50;;;21.54;99.63
804;BME280;25687;49.976;8.240;2023-06-19T01:33:38;99523.63;;;21.53;100.00
804;BME280;25687;49.976;8.240;2023-06-19T01:36:05;99534.41;;;21.42;100.00
804;BME280;25687;49.976;8.240;2023-06-19T01:38:32;99543.97;;;21.26;100.00
804;BME280;25687;49.976;8.240;2023-06-19T01:40:59;99535.25;;;21.34;100.00
804;BME280;25687;49.976;8.240;2023-06-19T01:43:27;99542.47;;;21.32;100.00
804;BME280;25687;49.976;8.240;2023-06-19T01:45:55;99546.03;;;21.39;99.58
804;BME280;25687;49.976;8.240;2023-06-19T01:48:20;99542.47;;;21.32;99.29
804;BME280;25687;49.976;8.240;2023-06-19T01:50:47;99545.41;;;21.29;98.84
804;BME280;25687;49.976;8.240;2023-06-19T01:53:13;99545.91;;;21.33;99.02
804;BME280;25687;49.976;8.240;2023-06-19T01:55:38;99542.16;;;21.27;99.92
804;BME280;25687;49.976;8.240;2023-06-19T01:58:03;99545.41;;;21.29;100.00
804;BME280;25687;49.976;8.240;2023-06-19T02:00:29;99543.94;;;21.35;100.00
804;BME280;25687;49.976;8.240;2023-06-19T02:02:55;99536.06;;;21.43;99.76
804;BME280;25687;49.976;8.240;2023-06-19T02:05:21;99561.59;;;21.41;99.79
804;BME280;25687;49.976;8.240;2023-06-19T02:07:46;99564.53;;;21.38;99.85
804;BME280;25687;49.976;8.240;2023-06-19T02:10:12;99559.59;;;21.51;99.17
804;BME280;25687;49.976;8.240;2023-06-19T02:12:37;99561.56;;;21.57;99.06
804;BME280;25687;49.976;8.240;2023-06-19T02:15:02;99565.16;;;21.56;100.00
804;BME280;25687;49.976;8.240;2023-06-19T02:17:28;99570.41;;;21.56;99.83
804;BME280;25687;49.976;8.240;2023-06-19T02:19:53;99575.94;;;21.62;99.68
804;BME280;25687;49.976;8.240;2023-06-19T02:22:18;99571.06;;;21.58;99.94
804;BME280;25687;49.976;8.240;2023-06-19T02:24:44;99571.34;;;21.55;100.00
804;BME280;25687;49.976;8.240;2023-06-19T02:27:10;99576.28;;;21.58;100.00
804;BME280;25687;49.976;8.240;2023-06-19T02:29:35;99569.91;;;21.61;100.00
804;BME280;25687;49.976;8.240;2023-06-19T02:32:02;99570.88;;;21.68;100.00
804;BME280;25687;49.976;8.240;2023-06-19T02:34:27;99567.28;;;21.61;100.00
804;BME280;25687;49.976;8.240;2023-06-19T02:36:52;99571.06;;;21.58;100.00
804;BME280;25687;49.976;8.240;2023-06-19T02:39:18;99579.53;;;21.52;100.00
804;BME280;25687;49.976;8.240;2023-06-19T02:41:43;99577.44;;;21.56;100.00
804;BME280;25687;49.976;8.240;2023-06-19T02:44:11;99575.00;;;21.38;100.00
804;BME280;25687;49.976;8.240;2023-06-19T02:46:37;99587.41;;;21.36;100.00
804;BME280;25687;49.976;8.240;2023-06-19T02:49:02;99583.50;;;21.32;100.00
804;BME280;25687;49.976;8.240;2023-06-19T02:51:27;99590.69;;;21.29;100.00
804;BME280;25687;49.976;8.240;2023-06-19T02:53:52;99592.69;;;21.19;100.00
804;BME280;25687;49.976;8.240;2023-06-19T02:56:18;99587.94;;;21.15;100.00
804;BME280;25687;49.976;8.240;2023-06-19T02:58:43;99594.31;;;20.95;100.00
804;BME280;25687;49.976;8.240;2023-06-19T03:01:08;99590.25;;;20.93;100.00
804;BME280;25687;49.976;8.240;2023-06-19T03:03:34;99602.00;;;20.97;100.00
804;BME280;25687;49.976;8.240;2023-06-19T03:06:07;99603.50;;;20.91;100.00
804;BME280;25687;49.976;8.240;2023-06-19T03:08:36;99603.47;;;21.00;100.00
804;BME280;25687;49.976;8.240;2023-06-19T03:11:02;99600.38;;;20.96;100.00
804;BME280;25687;49.976;8.240;2023-06-19T03:13:52;99599.06;;;20.92;100.00
804;BME280;25687;49.976;8.240;2023-06-19T03:16:18;99608.53;;;20.93;100.00
804;BME280;25687;49.976;8.240;2023-06-19T03:18:44;99608.03;;;21.06;100.00
804;BME280;25687;49.976;8.240;2023-06-19T03:21:18;99612.78;;;21.10;100.00
804;BME280;25687;49.976;8.240;2023-06-19T03:23:44;99612.31;;;21.15;100.00
804;BME280;25687;49.976;8.240;2023-06-19T03:26:10;99609.34;;;21.18;100.00
804;BME280;25687;49.976;8.240;2023-06-19T03:28:36;99611.78;;;21.28;100.00
804;BME280;25687;49.976;8.240;2023-06-19T03:31:02;99607.06;;;21.15;100.00
804;BME280;25687;49.976;8.240;2023-06-19T03:33:27;99614.91;;;21.32;100.00
804;BME280;25687;49.976;8.240;2023-06-19T03:35:52;99620.63;;;21.35;100.00
804;BME280;25687;49.976;8.240;2023-06-19T03:38:18;99621.94;;;21.31;100.00
804;BME280;25687;49.976;8.240;2023-06-19T03:40:43;99628.47;;;21.35;100.00
804;BME280;25687;49.976;8.240;2023-06-19T03:43:08;99645.28;;;21.49;100.00
804;BME280;25687;49.976;8.240;2023-06-19T03:45:33;99640.88;;;21.33;100.00
804;BME280;25687;49.976;8.240;2023-06-19T03:47:59;99643.00;;;21.29;100.00
804;BME280;25687;49.976;8.240;2023-06-19T03:50:24;99656.75;;;21.23;100.00
804;BME280;25687;49.976;8.240;2023-06-19T03:52:49;99650.69;;;21.39;100.00
804;BME280;25687;49.976;8.240;2023-06-19T03:55:15;99646.13;;;21.41;100.00
804;BME280;25687;49.976;8.240;2023-06-19T03:57:40;99648.72;;;21.41;100.00
804;BME280;25687;49.976;8.240;2023-06-19T04:00:06;99650.53;;;21.33;100.00
804;BME280;25687;49.976;8.240;2023-06-19T04:02:36;99659.72;;;21.28;100.00
804;BME280;25687;49.976;8.240;2023-06-19T04:05:01;99656.75;;;21.23;100.00
804;BME280;25687;49.976;8.240;2023-06-19T04:07:26;99656.56;;;21.33;100.00
804;BME280;25687;49.976;8.240;2023-06-19T04:09:52;99653.50;;;21.21;100.00
804;BME280;25687;49.976;8.240;2023-06-19T04:12:17;99658.06;;;21.19;100.00
804;BME280;25687;49.976;8.240;2023-06-19T04:14:42;99676.34;;;21.11;100.00
804;BME280;25687;49.976;8.240;2023-06-19T04:17:08;99674.41;;;21.13;100.00
804;BME280;25687;49.976;8.240;2023-06-19T04:19:33;99677.50;;;21.17;100.00
804;BME280;25687;49.976;8.240;2023-06-19T04:21:58;99680.94;;;21.25;100.00
804;BME280;25687;49.976;8.240;2023-06-19T04:24:24;99685.84;;;21.45;100.00
804;BME280;25687;49.976;8.240;2023-06-19T04:26:49;99685.69;;;21.47;100.00
804;BME280;25687;49.976;8.240;2023-06-19T04:29:14;99700.91;;;21.59;100.00
804;BME280;25687;49.976;8.240;2023-06-19T04:31:44;99695.84;;;21.74;100.00
804;BME280;25687;49.976;8.240;2023-06-19T04:34:15;99694.34;;;21.80;100.00
804;BME280;25687;49.976;8.240;2023-06-19T04:36:41;99702.50;;;21.85;100.00
804;BME280;25687;49.976;8.240;2023-06-19T04:39:06;99701.16;;;21.98;100.00
804;BME280;25687;49.976;8.240;2023-06-19T04:41:32;99698.03;;;22.02;100.00
804;BME280;25687;49.976;8.240;2023-06-19T04:43:57;99689.69;;;21.99;100.00
804;BME280;25687;49.976;8.240;2023-06-19T04:46:22;99697.63;;;22.30;100.00
804;BME280;25687;49.976;8.240;2023-06-19T04:48:48;99697.94;;;22.35;100.00
804;BME280;25687;49.976;8.240;2023-06-19T04:51:16;99705.38;;;22.55;100.00
804;BME280;25687;49.976;8.240;2023-06-19T04:53:45;99705.03;;;22.66;100.00
804;BME280;25687;49.976;8.240;2023-06-19T04:56:10;99706.69;;;22.59;100.00
804;BME280;25687;49.976;8.240;2023-06-19T04:58:35;99709.41;;;22.74;100.00
804;BME280;25687;49.976;8.240;2023-06-19T05:01:01;99703.47;;;22.80;100.00
804;BME280;25687;49.976;8.240;2023-06-19T05:03:26;99703.25;;;22.90;100.00
804;BME280;25687;49.976;8.240;2023-06-19T05:05:51;99716.53;;;22.88;100.00
804;BME280;25687;49.976;8.240;2023-06-19T05:08:17;99720.94;;;22.88;100.00
804;BME280;25687;49.976;8.240;2023-06-19T05:10:42;99724.69;;;22.94;100.00
804;BME280;25687;49.976;8.240;2023-06-19T05:13:07;99719.09;;;22.97;100.00
804;BME280;25687;49.976;8.240;2023-06-19T05:15:32;99721.88;;;22.95;100.00
804;BME280;25687;49.976;8.240;2023-06-19T05:17:58;99725.75;;;23.08;100.00
804;BME280;25687;49.976;8.240;2023-06-19T05:20:23;99712.44;;;23.17;100.00
804;BME280;25687;49.976;8.240;2023-06-19T05:22:48;99724.09;;;23.07;100.00
804;BME280;25687;49.976;8.240;2023-06-19T05:25:13;99719.88;;;23.29;100.00
804;BME280;25687;49.976;8.240;2023-06-19T05:27:39;99719.97;;;23.59;100.00
804;BME280;25687;49.976;8.240;2023-06-19T05:30:04;99719.78;;;23.60;100.00
804;BME280;25687;49.976;8.240;2023-06-19T05:32:30;99715.28;;;23.84;100.00
804;BME280;25687;49.976;8.240;2023-06-19T05:34:55;99714.13;;;23.87;100.00
804;BME280;25687;49.976;8.240;2023-06-19T05:37:21;99719.31;;;23.95;100.00
804;BME280;25687;49.976;8.240;2023-06-19T05:39:47;99721.81;;;23.73;100.00
804;BME280;25687;49.976;8.240;2023-06-19T05:42:13;99722.53;;;23.82;100.00
804;BME280;25687;49.976;8.240;2023-06-19T05:44:38;99733.34;;;24.02;100.00
804;BME280;25687;49.976;8.240;2023-06-19T05:47:05;99744.50;;;24.04;100.00
804;BME280;25687;49.976;8.240;2023-06-19T05:49:30;99750.28;;;24.44;100.00
804;BME280;25687;49.976;8.240;2023-06-19T05:51:56;99750.50;;;24.94;96.79
804;BME280;25687;49.976;8.240;2023-06-19T05:54:24;99757.16;;;25.12;96.81
804;BME280;25687;49.976;8.240;2023-06-19T05:56:49;99750.69;;;25.14;93.91
804;BME280;25687;49.976;8.240;2023-06-19T05:59:15;99750.66;;;25.36;94.12
804;BME280;25687;49.976;8.240;2023-06-19T06:01:41;99751.88;;;25.84;90.97
804;BME280;25687;49.976;8.240;2023-06-19T06:04:06;99759.91;;;26.32;88.92
804;BME280;25687;49.976;8.240;2023-06-19T06:06:31;99754.16;;;26.22;88.97
804;BME280;25687;49.976;8.240;2023-06-19T06:08:56;99762.91;;;26.22;88.88
804;BME280;25687;49.976;8.240;2023-06-19T06:11:22;99759.28;;;25.45;92.26
804;BME280;25687;49.976;8.240;2023-06-19T06:13:47;99761.91;;;25.95;91.13
804;BME280;25687;49.976;8.240;2023-06-19T06:16:12;99764.81;;;26.90;86.35
804;BME280;25687;49.976;8.240;2023-06-19T06:18:39;99776.63;;;27.15;83.67
804;BME280;25687;49.976;8.240;2023-06-19T06:21:04;99771.56;;;26.51;87.04
804;BME280;25687;49.976;8.240;2023-06-19T06:23:29;99765.88;;;26.13;89.00
804;BME280;25687;49.976;8.240;2023-06-19T06:25:54;99754.03;;;25.45;93.50
804;BME280;25687;49.976;8.240;2023-06-19T06:28:26;99766.03;;;25.33;94.01
804;BME280;25687;49.976;8.240;2023-06-19T06:30:51;99767.91;;;25.17;94.89
804;BME280;25687;49.976;8.240;2023-06-19T06:33:17;99753.59;;;25.70;92.62
804;BME280;25687;49.976;8.240;2023-06-19T06:35:42;99757.72;;;26.91;88.24
804;BME280;25687;49.976;8.240;2023-06-19T06:38:07;99755.16;;;27.85;80.62
804;BME280;25687;49.976;8.240;2023-06-19T06:40:32;99768.63;;;29.26;70.75
804;BME280;25687;49.976;8.240;2023-06-19T06:42:58;99766.25;;;29.94;65.30
804;BME280;25687;49.976;8.240;2023-06-19T06:45:23;99765.00;;;30.52;60.23
804;BME280;25687;49.976;8.240;2023-06-19T06:47:48;99764.53;;;31.94;52.84
804;BME280;25687;49.976;8.240;2023-06-19T06:50:13;99770.16;;;32.62;49.33
804;BME280;25687;49.976;8.240;2023-06-19T06:52:39;99779.53;;;32.94;48.32
804;BME280;25687;49.976;8.240;2023-06-19T06:55:04;99774.53;;;32.69;46.98
804;BME280;25687;49.976;8.240;2023-06-19T06:57:30;99777.34;;;31.97;51.08
804;BME280;25687;49.976;8.240;2023-06-19T06:59:55;99773.63;;;31.98;51.72
804;BME280;25687;49.976;8.240;2023-06-19T07:02:20;99777.81;;;31.82;50.55
804;BME280;25687;49.976;8.240;2023-06-19T07:04:45;99793.09;;;32.51;48.13
804;BME280;25687;49.976;8.240;2023-06-19T07:07:11;99793.75;;;32.18;48.17
804;BME280;25687;49.976;8.240;2023-06-19T07:09:36;99794.56;;;31.83;50.11
804;BME280;25687;49.976;8.240;2023-06-19T07:12:01;99792.69;;;31.05;53.79
804;BME280;25687;49.976;8.240;2023-06-19T07:14:29;99790.13;;;30.68;57.44
804;BME280;25687;49.976;8.240;2023-06-19T07:16:55;99794.41;;;30.69;58.83
804;BME280;25687;49.976;8.240;2023-06-19T07:19:20;99793.69;;;31.23;55.45
804;BME280;25687;49.976;8.240;2023-06-19T07:21:45;99797.25;;;30.86;56.08
804;BME280;25687;49.976;8.240;2023-06-19T07:24:10;99798.91;;;30.69;58.77
804;BME280;25687;49.976;8.240;2023-06-19T07:26:36;99805.22;;;30.86;57.32
804;BME280;25687;49.976;8.240;2023-06-19T07:29:01;99814.44;;;31.14;57.10
804;BME280;25687;49.976;8.240;2023-06-19T07:31:26;99820.47;;;32.35;50.59
804;BME280;25687;49.976;8.240;2023-06-19T07:33:52;99823.00;;;32.71;47.24
804;BME280;25687;49.976;8.240;2023-06-19T07:36:17;99827.88;;;33.03;45.43
804;BME280;25687;49.976;8.240;2023-06-19T07:38:43;99818.97;;;33.43;44.94
804;BME280;25687;49.976;8.240;2023-06-19T07:41:09;99818.13;;;33.54;44.55
804;BME280;25687;49.976;8.240;2023-06-19T07:43:35;99816.31;;;33.77;43.78
804;BME280;25687;49.976;8.240;2023-06-19T07:46:00;99815.28;;;34.17;40.60
804;BME280;25687;49.976;8.240;2023-06-19T07:48:26;99816.94;;;35.17;38.43
804;BME280;25687;49.976;8.240;2023-06-19T07:50:53;99829.81;;;35.91;37.90
804;BME280;25687;49.976;8.240;2023-06-19T07:53:18;99826.50;;;34.86;37.84
804;BME280;25687;49.976;8.240;2023-06-19T07:55:43;99824.84;;;34.13;40.38
804;BME280;25687;49.976;8.240;2023-06-19T07:58:09;99828.13;;;34.20;40.91
804;BME280;25687;49.976;8.240;2023-06-19T08:00:34;99823.41;;;34.72;40.05
804;BME280;25687;49.976;8.240;2023-06-19T08:03:00;99825.88;;;35.33;38.51
804;BME280;25687;49.976;8.240;2023-06-19T08:05:25;99828.63;;;37.03;35.29
804;BME280;25687;49.976;8.240;2023-06-19T08:07:51;99829.97;;;36.95;37.28
804;BME280;25687;49.976;8.240;2023-06-19T08:10:16;99839.19;;;36.41;35.70
804;BME280;25687;49.976;8.240;2023-06-19T08:12:42;99840.78;;;36.37;35.92
804;BME280;25687;49.976;8.240;2023-06-19T08:15:08;99830.97;;;34.14;41.31
804;BME280;25687;49.976;8.240;2023-06-19T08:17:34;99830.34;;;34.46;40.94
804;BME280;25687;49.976;8.240;2023-06-19T08:20:00;99829.47;;;35.87;39.80
804;BME280;25687;49.976;8.240;2023-06-19T08:22:25;99840.41;;;36.87;35.34
804;BME280;25687;49.976;8.240;2023-06-19T08:24:50;99844.69;;;36.88;34.87
804;BME280;25687;49.976;8.240;2023-06-19T08:27:16;99850.38;;;34.70;39.57
804;BME280;25687;49.976;8.240;2023-06-19T08:29:41;99846.09;;;34.47;40.74
804;BME280;25687;49.976;8.240;2023-06-19T08:32:06;99841.03;;;35.22;40.07
804;BME280;25687;49.976;8.240;2023-06-19T08:34:34;99842.66;;;36.42;36.59
804;BME280;25687;49.976;8.240;2023-06-19T08:36:59;99846.59;;;34.66;39.80
804;BME280;25687;49.976;8.240;2023-06-19T08:39:24;99840.72;;;35.46;40.24
804;BME280;25687;49.976;8.240;2023-06-19T08:41:50;99841.19;;;36.87;37.15
804;BME280;25687;49.976;8.240;2023-06-19T08:44:15;99839.03;;;34.36;41.38
804;BME280;25687;49.976;8.240;2023-06-19T08:46:40;99848.22;;;34.06;44.06
804;BME280;25687;49.976;8.240;2023-06-19T08:49:07;99834.59;;;32.64;47.31
804;BME280;25687;49.976;8.240;2023-06-19T08:51:35;99835.84;;;32.09;51.79
804;BME280;25687;49.976;8.240;2023-06-19T08:54:04;99841.41;;;31.72;51.58
804;BME280;25687;49.976;8.240;2023-06-19T08:56:34;99836.34;;;30.79;55.03
804;BME280;25687;49.976;8.240;2023-06-19T08:59:10;99835.72;;;30.65;58.83
804;BME280;25687;49.976;8.240;2023-06-19T09:01:37;99831.16;;;31.45;54.43
804;BME280;25687;49.976;8.240;2023-06-19T09:04:10;99833.22;;;31.31;53.90
804;BME280;25687;49.976;8.240;2023-06-19T09:06:36;99836.38;;;29.48;63.87
804;BME280;25687;49.976;8.240;2023-06-19T09:09:12;99831.44;;;29.12;68.40
804;BME280;25687;49.976;8.240;2023-06-19T09:11:39;99836.56;;;29.07;67.54
804;BME280;25687;49.976;8.240;2023-06-19T09:14:08;99845.06;;;29.55;68.17
804;BME280;25687;49.976;8.240;2023-06-19T09:16:39;99830.59;;;30.45;63.42
804;BME280;25687;49.976;8.240;2023-06-19T09:19:04;99843.09;;;31.54;58.61
804;BME280;25687;49.976;8.240;2023-06-19T09:21:30;99841.72;;;31.64;55.31
804;BME280;25687;49.976;8.240;2023-06-19T09:24:02;99836.19;;;32.25;53.45
804;BME280;25687;49.976;8.240;2023-06-19T09:26:28;99837.41;;;31.63;53.53
804;BME280;25687;49.976;8.240;2023-06-19T09:28:53;99834.06;;;31.13;57.05
804;BME280;25687;49.976;8.240;2023-06-19T09:31:18;99827.38;;;30.92;55.60
804;BME280;25687;49.976;8.240;2023-06-19T09:33:43;99826.19;;;31.06;59.14
804;BME280;25687;49.976;8.240;2023-06-19T09:36:09;99836.72;;;31.55;57.61
804;BME280;25687;49.976;8.240;2023-06-19T09:38:38;99826.34;;;33.07;49.15
804;BME280;25687;49.976;8.240;2023-06-19T09:41:06;99832.94;;;35.45;42.90
804;BME280;25687;49.976;8.240;2023-06-19T09:43:40;99831.84;;;36.21;37.02
804;BME280;25687;49.976;8.240;2023-06-19T09:46:07;99844.97;;;37.74;33.83
804;BME280;25687;49.976;8.240;2023-06-19T09:48:34;99842.13;;;36.40;35.61
804;BME280;25687;49.976;8.240;2023-06-19T09:51:10;99839.06;;;36.21;35.54
804;BME280;25687;49.976;8.240;2023-06-19T09:53:37;99841.19;;;34.83;39.75
804;BME280;25687;49.976;8.240;2023-06-19T09:56:02;99837.53;;;34.89;38.94
804;BME280;25687;49.976;8.240;2023-06-19T09:58:29;99844.09;;;33.81;43.65
804;BME280;25687;49.976;8.240;2023-06-19T10:00:55;99840.59;;;32.83;45.26
804;BME280;25687;49.976;8.240;2023-06-19T10:03:30;99831.09;;;32.11;48.24
804;BME280;25687;49.976;8.240;2023-06-19T10:06:00;99825.31;;;32.14;47.71
804;BME280;25687;49.976;8.240;2023-06-19T10:08:30;99831.59;;;33.02;45.89
804;BME280;25687;49.976;8.240;2023-06-19T10:10:55;99832.91;;;33.62;43.53
804;BME280;25687;49.976;8.240;2023-06-19T10:27:02;99840.31;;;36.61;35.75
804;BME280;25687;49.976;8.240;2023-06-19T10:29:38;99841.50;;;37.68;31.34
804;BME280;25687;49.976;8.240;2023-06-19T10:32:04;99839.91;;;37.10;32.64
804;BME280;25687;49.976;8.240;2023-06-19T10:34:36;99845.81;;;37.85;32.13
804;BME280;25687;49.976;8.240;2023-06-19T10:37:01;99844.44;;;37.67;32.31
804;BME280;25687;49.976;8.240;2023-06-19T10:39:27;99836.94;;;37.07;31.47
804;BME280;25687;49.976;8.240;2023-06-19T10:41:52;99834.66;;;34.96;34.88
804;BME280;25687;49.976;8.240;2023-06-19T10:44:17;99831.38;;;34.67;35.86
804;BME280;25687;49.976;8.240;2023-06-19T10:46:43;99833.03;;;33.55;38.03
804;BME280;25687;49.976;8.240;2023-06-19T10:49:08;99825.28;;;32.91;42.53
804;BME280;25687;49.976;8.240;2023-06-19T10:51:38;99820.59;;;32.98;39.41
804;BME280;25687;49.976;8.240;2023-06-19T10:54:04;99827.50;;;32.17;38.85
804;BME280;25687;49.976;8.240;2023-06-19T10:56:30;99826.00;;;31.74;44.79
804;BME280;25687;49.976;8.240;2023-06-19T10:59:00;99817.34;;;31.25;47.37
804;BME280;25687;49.976;8.240;2023-06-19T11:01:47;99828.28;;;30.11;53.75
804;BME280;25687;49.976;8.240;2023-06-19T11:04:14;99817.63;;;30.37;56.10
804;BME280;25687;49.976;8.240;2023-06-19T11:06:42;99812.78;;;30.52;55.55
804;BME280;25687;49.976;8.240;2023-06-19T11:09:09;99813.13;;;31.05;53.82
804;BME280;25687;49.976;8.240;2023-06-19T11:11:48;99808.03;;;30.73;54.58
804;BME280;25687;49.976;8.240;2023-06-19T11:14:15;99794.94;;;31.20;52.06
804;BME280;25687;49.976;8.240;2023-06-19T11:16:44;99785.88;;;30.49;52.98
804;BME280;25687;49.976;8.240;2023-06-19T11:19:17;99794.03;;;30.66;52.47
804;BME280;25687;49.976;8.240;2023-06-19T11:21:46;99801.28;;;29.52;58.91
804;BME280;25687;49.976;8.240;2023-06-19T11:24:13;99801.69;;;29.74;57.46
804;BME280;25687;49.976;8.240;2023-06-19T11:26:44;99785.94;;;30.42;60.07
804;BME280;25687;49.976;8.240;2023-06-19T11:31:46;99790.63;;;31.97;48.18
804;BME280;25687;49.976;8.240;2023-06-19T11:34:12;99789.06;;;32.49;52.25
804;BME280;25687;49.976;8.240;2023-06-19T11:36:38;99790.84;;;31.60;50.24
804;BME280;25687;49.976;8.240;2023-06-19T11:39:04;99789.50;;;31.69;49.87
804;BME280;25687;49.976;8.240;2023-06-19T11:41:34;99787.88;;;31.92;47.22
804;BME280;25687;49.976;8.240;2023-06-19T11:44:02;99785.13;;;32.51;51.41
804;BME280;25687;49.976;8.240;2023-06-19T11:46:29;99782.38;;;32.46;43.75
804;BME280;25687;49.976;8.240;2023-06-19T11:48:56;99782.06;;;32.07;47.69
804;BME280;25687;49.976;8.240;2023-06-19T11:51:21;99778.75;;;31.10;54.15
804;BME280;25687;49.976;8.240;2023-06-19T11:53:46;99773.28;;;30.25;51.25
804;BME280;25687;49.976;8.240;2023-06-19T11:56:12;99776.00;;;30.19;54.17
804;BME280;25687;49.976;8.240;2023-06-19T11:58:37;99775.09;;;30.62;53.26
804;BME280;25687;49.976;8.240;2023-06-19T12:01:02;99779.03;;;30.90;50.64
804;BME280;25687;49.976;8.240;2023-06-19T12:03:27;99778.34;;;31.37;46.81
804;BME280;25687;49.976;8.240;2023-06-19T12:05:53;99779.00;;;31.20;51.10
804;BME280;25687;49.976;8.240;2023-06-19T12:08:18;99778.09;;;31.27;53.79
804;BME280;25687;49.976;8.240;2023-06-19T12:10:43;99781.41;;;31.88;45.30
804;BME280;25687;49.976;8.240;2023-06-19T12:13:08;99775.31;;;32.69;41.45
804;BME280;25687;49.976;8.240;2023-06-19T12:15:34;99777.47;;;32.84;42.30
804;BME280;25687;49.976;8.240;2023-06-19T12:17:59;99776.34;;;32.80;40.54
804;BME280;25687;49.976;8.240;2023-06-19T12:20:24;99767.50;;;32.22;42.10
804;BME280;25687;49.976;8.240;2023-06-19T12:22:50;99771.41;;;32.19;44.70
804;BME280;25687;49.976;8.240;2023-06-19T12:25:15;99768.44;;;31.56;44.36
804;BME280;25687;49.976;8.240;2023-06-19T12:27:40;99762.66;;;31.47;43.04
804;BME280;25687;49.976;8.240;2023-06-19T12:30:07;99760.94;;;30.99;46.97
804;BME280;25687;49.976;8.240;2023-06-19T12:32:33;99765.84;;;31.14;49.42
804;BME280;25687;49.976;8.240;2023-06-19T12:34:58;99759.38;;;31.21;46.03
804;BME280;25687;49.976;8.240;2023-06-19T12:37:23;99759.25;;;31.28;49.85
804;BME280;25687;49.976;8.240;2023-06-19T12:39:50;99759.19;;;31.35;45.42
804;BME280;25687;49.976;8.240;2023-06-19T12:42:15;99759.44;;;31.81;43.43
804;BME280;25687;49.976;8.240;2023-06-19T12:44:41;99755.34;;;32.26;44.40
804;BME280;25687;49.976;8.240;2023-06-19T12:47:07;99761.06;;;31.82;42.24
804;BME280;25687;49.976;8.240;2023-06-19T12:49:32;99762.44;;;31.73;42.19
804;BME280;25687;49.976;8.240;2023-06-19T12:51:58;99759.56;;;31.86;42.48
804;BME280;25687;49.976;8.240;2023-06-19T12:54:23;99756.59;;;32.11;40.15
804;BME280;25687;49.976;8.240;2023-06-19T12:56:49;99755.84;;;31.87;42.48
804;BME280;25687;49.976;8.240;2023-06-19T12:59:14;99759.19;;;31.59;43.09
804;BME280;25687;49.976;8.240;2023-06-19T13:01:40;99751.44;;;31.45;41.81
804;BME280;25687;49.976;8.240;2023-06-19T13:04:06;99759.31;;;31.99;41.29
804;BME280;25687;49.976;8.240;2023-06-19T13:06:31;99761.09;;;32.34;40.74
804;BME280;25687;49.976;8.240;2023-06-19T13:08:57;99757.91;;;32.49;38.97
804;BME280;25687;49.976;8.240;2023-06-19T13:11:22;99752.69;;;32.55;38.23
804;BME280;25687;49.976;8.240;2023-06-19T13:13:47;99756.56;;;32.76;37.91
804;BME280;25687;49.976;8.240;2023-06-19T13:16:12;99750.81;;;32.26;37.75
804;BME280;25687;49.976;8.240;2023-06-19T13:18:38;99743.09;;;32.01;38.21
804;BME280;25687;49.976;8.240;2023-06-19T13:21:03;99740.94;;;31.98;39.28
804;BME280;25687;49.976;8.240;2023-06-19T13:23:28;99744.53;;;31.80;39.67
804;BME280;25687;49.976;8.240;2023-06-19T13:25:56;99743.78;;;32.20;38.72
804;BME280;25687;49.976;8.240;2023-06-19T13:28:21;99748.63;;;32.35;38.62